Derry, New Hampshire
Current Conditions -  °F | °C
As of 2:53 PM on Wednesday 28 Jan 2015 (Local Time) from KMHT Reporting Station
Broken Clouds Broken Clouds  
Wind Chill: 11°   Ceiling: 13000
Heat Index: 23°   Visibility: 10mi
Dew Point:   Wind: 14mph
Humidity: 50%   Direction: 310°NW
Pressure: 29.99"   Gusts: NA
Location:  42.88°N, 71.32°W
Report Text: KMHT 281953Z 31012KT 10SM BKN130 M05/M14 A2999 RMK AO2 SLP177 P0000 T10501139
Loading
Personal Weather Stations






























Interactive Weather Map New forecast layout! Learn more

10-Day Weather Forecast

Advertisements
Track Severe Weather on mobile